Time;durP1;ratioP1;P1;durP2;ratioP2;P2;SDS_P1;SDS_P2;PMS_P1;PMS_P2;Temp;Humidity;BMP_temperature;BMP_pressure;BME280_temperature;BME280_humidity;BME280_pressure;Samples;Min_cycle;Max_cycle;Signal;HPM_P1;HPM_P2
2022/09/21 00:01:26;;;;;;;5.97;2.65;;;;;;;23.17;50.01;101278.16;5013780;28;20046;-71
2022/09/21 00:03:56;;;;;;;3.58;2.03;;;;;;;23.17;50.21;101277.28;5013777;28;20049;-71
2022/09/21 00:06:25;;;;;;;4.60;1.80;;;;;;;23.17;50.07;101279.97;5012301;28;20054;-71
2022/09/21 00:08:54;;;;;;;3.67;2.10;;;;;;;23.15;49.99;101277.44;5013427;28;20405;-71
2022/09/21 00:11:25;;;;;;;4.30;2.20;;;;;;;23.16;50.12;101279.13;5014129;28;20050;-71
2022/09/21 00:13:54;;;;;;;5.22;2.10;;;;;;;23.16;50.00;101279.13;5013752;28;20050;-71
2022/09/21 00:16:22;;;;;;;5.00;2.10;;;;;;;23.14;50.13;101283.84;5014055;28;20042;-71
2022/09/21 00:18:51;;;;;;;2.92;2.13;;;;;;;23.16;50.07;101286.38;5013211;28;20050;-71
2022/09/21 00:21:18;;;;;;;2.35;1.70;;;;;;;23.15;49.90;101280.13;5013487;28;20493;-71
2022/09/21 00:23:45;;;;;;;4.18;2.00;;;;;;;23.15;50.07;101276.59;5013212;28;20473;-71
2022/09/21 00:26:18;;;;;;;4.47;1.80;;;;;;;23.15;49.93;101284.69;5014207;28;20061;-72
2022/09/21 00:28:48;;;;;;;6.53;2.20;;;;;;;23.14;49.81;101273.03;5014047;28;20046;-72
2022/09/21 00:31:17;;;;;;;2.63;1.80;;;;;;;23.13;49.76;101287.53;5013923;28;20057;-71
2022/09/21 00:33:45;;;;;;;4.20;2.30;;;;;;;23.14;49.95;101283.84;5013056;28;20062;-72
2022/09/21 00:36:16;;;;;;;4.95;2.20;;;;;;;23.15;50.02;101281.97;5013072;28;20069;-71
2022/09/21 00:38:48;;;;;;;3.40;2.10;;;;;;;23.14;49.73;101280.28;5013777;28;20054;-71
2022/09/21 00:41:15;;;;;;;2.43;1.93;;;;;;;23.13;50.09;101276.75;5012711;28;20408;-71
2022/09/21 00:44:07;;;;;;;3.65;2.15;;;;;;;23.13;49.84;101282.13;5013563;28;20469;-71
2022/09/21 00:46:38;;;;;;;3.00;2.00;;;;;;;23.13;49.83;101283.97;5053868;28;20061;-71
2022/09/21 00:49:06;;;;;;;4.03;2.58;;;;;;;23.13;49.82;101282.13;5054378;28;20060;-71
2022/09/21 00:51:35;;;;;;;4.47;2.35;;;;;;;23.12;50.00;101283.13;5053627;28;20057;-71
2022/09/21 00:54:13;;;;;;;3.22;2.20;;;;;;;23.12;49.99;101280.41;5053764;28;20053;-71
2022/09/21 00:56:42;;;;;;;3.08;2.30;;;;;;;23.12;49.73;101280.41;5054609;28;20056;-71
2022/09/21 00:59:12;;;;;;;3.88;1.92;;;;;;;23.13;49.77;101283.97;5053852;28;20052;-71
2022/09/21 01:01:41;;;;;;;4.90;2.42;;;;;;;23.13;50.03;101281.25;5054391;28;20055;-71
2022/09/21 01:04:10;;;;;;;2.83;2.33;;;;;;;23.11;49.78;101289.53;5053851;28;20500;-72
2022/09/21 01:06:40;;;;;;;4.60;2.38;;;;;;;23.11;49.81;101284.13;5053401;28;20053;-72
2022/09/21 01:09:08;;;;;;;2.92;2.17;;;;;;;23.12;49.82;101284.97;5053423;28;20059;-71
2022/09/21 01:11:51;;;;;;;3.78;2.38;;;;;;;23.12;49.82;101287.66;5053438;28;20069;-71
2022/09/21 01:14:37;;;;;;;;;;;;;;;23.12;49.62;101287.66;5054017;28;20140;-71
2022/09/21 01:17:22;;;;;;;6.22;2.60;;;;;;;23.10;49.85;101287.81;5053331;28;19920;-71
2022/09/21 01:20:17;;;;;;;4.95;1.95;;;;;;;23.11;49.82;101297.63;5053231;28;20060;-72
2022/09/21 01:22:51;;;;;;;2.88;1.90;;;;;;;23.11;49.82;101294.91;5051111;28;20045;-71
2022/09/21 01:25:36;;;;;;;4.07;1.92;;;;;;;23.10;49.58;101304.03;5012882;28;20583;-71
2022/09/21 01:28:22;;;;;;;4.22;2.55;;;;;;;23.10;49.79;101306.72;5012894;28;20061;-71
2022/09/21 01:30:52;;;;;;;3.33;2.50;;;;;;;23.09;49.70;101299.63;5012656;28;20041;-71
2022/09/21 01:33:29;;;;;;;3.25;1.90;;;;;;;23.11;49.86;101305.72;5012277;28;20409;-71
2022/09/21 01:36:02;;;;;;;3.35;2.45;;;;;;;23.09;49.65;101307.72;5013114;28;20385;-71
2022/09/21 01:38:32;;;;;;;;;;;;;;;23.10;49.62;101314.84;5013390;28;20057;-71
2022/09/21 01:41:03;;;;;;;5.68;2.45;;;;;;;23.09;49.85;101306.84;5010887;28;19921;-71
2022/09/21 01:43:36;;;;;;;3.88;2.25;;;;;;;23.09;49.90;101313.13;5012702;28;20393;-71
2022/09/21 01:46:06;;;;;;;;;;;;;;;23.10;49.86;101322.94;5013358;28;20385;-71
2022/09/21 01:48:39;;;;;;;4.13;2.13;;;;;;;23.10;49.89;101324.78;5012408;28;20292;-71
2022/09/21 01:51:10;;;;;;;3.25;2.20;;;;;;;23.09;49.93;101321.25;5012306;28;20485;-71
2022/09/21 01:53:43;;;;;;;4.53;2.17;;;;;;;23.08;49.61;101319.50;5012736;28;20405;-72
2022/09/21 01:56:19;;;;;;;2.92;2.30;;;;;;;23.09;49.84;101317.66;5011990;28;20049;-71
2022/09/21 01:59:12;;;;;;;3.42;2.08;;;;;;;23.07;49.77;101320.50;5012634;28;20465;-72
2022/09/21 02:01:45;;;;;;;5.90;2.55;;;;;;;23.08;49.67;101322.22;5012825;28;20046;-71
2022/09/21 02:04:13;;;;;;;3.80;2.40;;;;;;;23.07;49.68;101331.31;5011837;28;20042;-72
2022/09/21 02:06:44;;;;;;;3.28;2.47;;;;;;;23.08;49.76;101326.75;5011903;28;20046;-71
2022/09/21 02:09:13;;;;;;;3.53;2.20;;;;;;;23.07;49.51;101322.38;5012051;28;20054;-72
2022/09/21 02:11:43;;;;;;;4.25;2.35;;;;;;;23.07;49.57;101320.50;5010538;28;20057;-71
2022/09/21 02:14:15;;;;;;;4.18;2.20;;;;;;;23.06;49.63;101312.56;5012220;28;20461;-71
2022/09/21 02:16:47;;;;;;;3.92;2.20;;;;;;;23.07;49.62;101328.63;5012340;28;20049;-71
2022/09/21 02:19:36;;;;;;;;;;;;;;;23.07;49.56;101330.47;5012728;28;20049;-71
2022/09/21 02:22:16;;;;;;;3.88;2.50;;;;;;;23.06;49.61;101329.63;5011879;28;19922;-71
2022/09/21 02:24:54;;;;;;;3.45;2.28;;;;;;;23.06;49.70;101328.78;5011901;28;20057;-71
2022/09/21 02:27:40;;;;;;;3.00;2.13;;;;;;;23.06;49.68;101321.53;5011870;28;20405;-71
2022/09/21 02:30:13;;;;;;;3.53;2.47;;;;;;;23.05;49.50;101319.81;5011745;28;20046;-71
2022/09/21 02:33:05;;;;;;;4.25;2.00;;;;;;;23.05;49.67;101330.63;5011732;28;20049;-71
2022/09/21 02:35:54;;;;;;;2.70;1.90;;;;;;;23.05;49.71;101344.13;5012087;28;20046;-71
2022/09/21 02:38:31;;;;;;;3.58;2.33;;;;;;;23.05;49.77;101360.34;5011095;28;20385;-71
2022/09/21 02:41:06;;;;;;;3.13;1.80;;;;;;;23.05;49.41;101346.81;5011944;28;20045;-71
2022/09/21 02:43:40;;;;;;;4.80;2.35;;;;;;;23.05;49.47;101354.94;5011420;28;20041;-71
2022/09/21 02:46:33;;;;;;;3.45;2.10;;;;;;;23.05;49.49;101349.53;5010668;28;20050;-71
2022/09/21 02:49:08;;;;;;;4.37;2.77;;;;;;;23.04;49.34;101363.16;5010917;28;20046;-71
2022/09/21 02:51:41;;;;;;;4.30;2.30;;;;;;;23.04;49.49;101364.00;5011524;28;20053;-71
2022/09/21 02:54:12;;;;;;;2.83;2.10;;;;;;;23.03;49.32;101367.72;5011848;28;20477;-71
2022/09/21 02:56:41;;;;;;;3.03;2.00;;;;;;;23.04;49.43;101371.25;5011960;28;20050;-71
2022/09/21 02:59:09;;;;;;;3.55;2.15;;;;;;;23.03;49.46;101370.41;5011004;28;20050;-70
2022/09/21 03:01:39;;;;;;;7.68;2.33;;;;;;;23.04;49.49;101376.66;5010938;28;20516;-71
2022/09/21 03:04:06;;;;;;;4.32;2.05;;;;;;;23.03;49.14;101373.09;5010948;28;20053;-71
2022/09/21 03:06:34;;;;;;;3.42;2.45;;;;;;;23.03;49.30;101378.50;5011526;28;20053;-71
2022/09/21 03:09:01;;;;;;;4.88;2.60;;;;;;;23.04;49.29;101379.34;5010916;28;20057;-71
2022/09/21 03:11:28;;;;;;;3.05;2.05;;;;;;;23.03;49.48;101383.06;5011301;28;20046;-71
2022/09/21 03:13:56;;;;;;;4.88;2.22;;;;;;;23.02;49.50;101384.91;5011350;28;20042;-71
2022/09/21 03:16:23;;;;;;;3.92;2.25;;;;;;;23.02;49.50;101387.63;5011164;28;20045;-71
2022/09/21 03:18:51;;;;;;;3.00;2.00;;;;;;;23.02;49.35;101382.22;5010927;28;20500;-71
2022/09/21 03:21:18;;;;;;;4.20;1.90;;;;;;;23.03;49.22;101383.06;5010810;28;20409;-72
2022/09/21 03:23:46;;;;;;;3.63;1.95;;;;;;;23.02;49.36;101386.75;5011203;28;20053;-71
2022/09/21 03:26:13;;;;;;;3.05;1.98;;;;;;;23.01;49.28;101385.91;5010553;28;20050;-71
2022/09/21 03:28:40;;;;;;;3.60;2.20;;;;;;;23.00;49.34;101392.28;5010026;28;20405;-72
2022/09/21 03:31:07;;;;;;;3.63;2.17;;;;;;;23.01;49.35;101396.72;5010511;28;20057;-72
2022/09/21 03:33:35;;;;;;;2.65;2.03;;;;;;;23.01;49.13;101394.03;5010457;28;20488;-72
2022/09/21 03:36:03;;;;;;;2.08;1.88;;;;;;;23.01;49.29;101399.41;5010907;28;20056;-72
2022/09/21 03:38:30;;;;;;;4.65;2.10;;;;;;;23.01;49.18;101406.63;5010565;28;20042;-71
2022/09/21 03:40:57;;;;;;;3.00;1.80;;;;;;;23.00;49.16;101400.38;5010598;28;20057;-72
2022/09/21 03:43:25;;;;;;;3.90;2.42;;;;;;;23.01;49.08;101409.34;5010558;28;20053;-71
2022/09/21 03:45:52;;;;;;;3.83;2.25;;;;;;;22.99;49.13;101414.91;5010452;28;20069;-72
2022/09/21 03:48:21;;;;;;;4.35;2.35;;;;;;;23.00;49.19;101421.16;5010704;28;20046;-72
2022/09/21 03:50:48;;;;;;;2.55;1.92;;;;;;;22.99;49.05;101431.09;5010848;28;20050;-71
2022/09/21 03:53:16;;;;;;;3.15;1.77;;;;;;;22.99;49.02;101420.28;5010621;28;20385;-71
2022/09/21 03:55:43;;;;;;;2.83;1.88;;;;;;;23.00;49.24;101427.41;5012979;28;20054;-72
2022/09/21 03:58:11;;;;;;;4.70;2.30;;;;;;;22.98;49.09;101434.81;5013457;28;20049;-72
2022/09/21 04:00:38;;;;;;;2.90;2.17;;;;;;;22.99;49.02;101428.41;5014035;28;20054;-71
2022/09/21 04:03:05;;;;;;;2.58;1.92;;;;;;;22.98;49.10;101439.34;5014005;28;20045;-72
2022/09/21 04:05:32;;;;;;;4.82;2.03;;;;;;;22.98;49.22;101439.34;5012718;28;20046;-72
2022/09/21 04:08:01;;;;;;;4.43;2.40;;;;;;;22.97;49.23;101443.91;5013717;28;20056;-72
2022/09/21 04:10:32;;;;;;;4.18;1.83;;;;;;;22.97;49.10;101446.59;5013952;28;20064;-72
2022/09/21 04:13:00;;;;;;;2.92;1.92;;;;;;;22.97;49.12;101457.41;5013726;28;20458;-72
2022/09/21 04:15:28;;;;;;;2.30;1.80;;;;;;;22.97;49.25;101452.00;5013337;28;20049;-72
2022/09/21 04:17:56;;;;;;;3.13;1.90;;;;;;;22.98;49.21;101466.34;5013453;28;20046;-72
2022/09/21 04:20:24;;;;;;;3.90;2.00;;;;;;;22.97;49.33;101465.50;5013419;28;20049;-72
2022/09/21 04:22:52;;;;;;;4.03;2.10;;;;;;;22.96;49.30;101455.66;5013770;28;20050;-71
2022/09/21 04:25:19;;;;;;;6.68;2.25;;;;;;;22.97;49.14;101459.22;5013660;28;20053;-71
2022/09/21 04:27:47;;;;;;;4.32;2.20;;;;;;;22.97;49.31;101467.31;5013438;28;20048;-73
2022/09/21 04:30:15;;;;;;;2.80;2.05;;;;;;;22.96;49.30;101471.88;5013668;28;20042;-71
2022/09/21 04:32:43;;;;;;;2.65;2.13;;;;;;;22.97;49.47;101475.41;5013672;28;20045;-71
2022/09/21 04:35:10;;;;;;;4.15;2.30;;;;;;;22.95;49.40;101479.13;5013584;28;20061;-71
2022/09/21 04:37:37;;;;;;;3.65;2.28;;;;;;;22.95;49.39;101481.81;5013185;28;20041;-71
2022/09/21 04:40:06;;;;;;;3.40;2.22;;;;;;;22.96;49.31;101485.38;5013221;28;20049;-72
2022/09/21 04:42:35;;;;;;;3.90;1.95;;;;;;;22.95;49.27;101489.94;5012820;28;20049;-71
2022/09/21 04:45:03;;;;;;;3.95;2.13;;;;;;;22.95;49.41;101498.03;5013411;28;20045;-72
2022/09/21 04:47:30;;;;;;;3.05;2.30;;;;;;;22.95;49.22;101494.47;5013617;28;20354;-71
2022/09/21 04:49:57;;;;;;;4.05;2.13;;;;;;;22.95;49.10;101499.88;5013109;28;20477;-72
2022/09/21 04:52:25;;;;;;;3.55;1.90;;;;;;;22.94;49.24;101499.03;5012791;28;20370;-72
2022/09/21 04:54:52;;;;;;;4.47;1.80;;;;;;;22.96;49.10;101506.97;5012659;28;20054;-72
2022/09/21 04:57:19;;;;;;;4.35;2.05;;;;;;;22.95;49.32;101507.97;5013145;28;20386;-71
2022/09/21 04:59:47;;;;;;;4.68;2.30;;;;;;;22.94;49.22;101509.81;5013387;28;20477;-71
2022/09/21 05:02:14;;;;;;;4.05;2.10;;;;;;;22.95;49.23;101513.38;5013394;28;20052;-72
2022/09/21 05:04:41;;;;;;;3.17;1.85;;;;;;;22.94;49.14;101508.97;5012498;28;20042;-72
2022/09/21 05:07:13;;;;;;;4.47;2.22;;;;;;;22.94;49.20;101520.63;5013516;28;20111;-72
2022/09/21 05:12:26;;;;;;;3.92;2.35;;;;;;;22.93;49.14;101528.88;5012913;28;20054;-72
2022/09/21 05:14:54;;;;;;;2.92;2.13;;;;;;;22.94;49.01;101533.28;5013124;28;20485;-72
2022/09/21 05:17:22;;;;;;;5.68;2.30;;;;;;;22.93;49.15;101526.19;5012999;28;20046;-72
2022/09/21 05:19:50;;;;;;;3.70;2.10;;;;;;;22.93;49.01;101539.69;5012343;28;20046;-72
2022/09/21 05:22:17;;;;;;;5.57;2.55;;;;;;;22.92;49.25;101536.09;5013061;28;20046;-72
2022/09/21 05:24:44;;;;;;;3.70;2.30;;;;;;;22.92;49.05;101537.94;5012850;28;20042;-72
2022/09/21 05:27:12;;;;;;;3.30;1.98;;;;;;;22.92;49.28;101546.06;5012137;28;20042;-72
2022/09/21 05:29:40;;;;;;;2.92;2.08;;;;;;;22.92;48.94;101543.34;5012115;28;20050;-72
2022/09/21 05:32:30;;;;;;;2.63;1.80;;;;;;;22.91;49.31;101547.91;5012592;28;20477;-72
2022/09/21 05:35:21;;;;;;;3.67;2.10;;;;;;;22.91;49.26;101536.25;5011788;28;20046;-72
2022/09/21 05:38:09;;;;;;;4.05;2.35;;;;;;;22.91;49.08;101536.25;5011888;28;20046;-72
2022/09/21 05:40:37;;;;;;;3.10;1.90;;;;;;;22.90;49.08;101529.13;5012048;28;20073;-72
2022/09/21 05:43:04;;;;;;;4.13;2.17;;;;;;;22.91;49.26;101529.00;5012053;28;20057;-72
2022/09/21 05:45:32;;;;;;;4.20;2.10;;;;;;;22.89;49.01;101528.25;5012543;28;20046;-72
2022/09/21 05:48:11;;;;;;;3.85;1.98;;;;;;;22.91;49.26;101536.25;5011732;28;20046;-72
2022/09/21 05:50:47;;;;;;;2.50;2.20;;;;;;;22.91;49.26;101538.94;5012558;28;20049;-72
2022/09/21 05:53:29;;;;;;;3.13;2.10;;;;;;;22.90;49.09;101548.91;5011897;28;20050;-72
2022/09/21 05:55:59;;;;;;;3.42;2.20;;;;;;;22.90;49.19;101546.19;5011600;28;20038;-71
2022/09/21 05:58:30;;;;;;;4.28;2.20;;;;;;;22.90;49.26;101550.72;5009966;28;20057;-72
2022/09/21 06:01:17;;;;;;;4.38;2.33;;;;;;;22.90;49.26;101553.41;5012240;28;20046;-72
2022/09/21 06:03:47;;;;;;;2.60;2.10;;;;;;;22.89;49.24;101557.97;5011810;28;20046;-71
2022/09/21 06:06:17;;;;;;;2.47;2.15;;;;;;;22.90;49.18;101566.91;5012235;28;20046;-72
2022/09/21 06:08:44;;;;;;;5.93;2.65;;;;;;;22.90;49.29;101564.22;5011764;28;20497;-72
2022/09/21 06:11:13;;;;;;;2.83;2.42;;;;;;;22.90;49.26;101570.50;5012231;28;20049;-71
2022/09/21 06:13:40;;;;;;;5.63;2.10;;;;;;;22.89;49.40;101566.06;5011917;28;20061;-72
2022/09/21 06:16:08;;;;;;;4.35;2.25;;;;;;;22.89;49.23;101562.53;5011318;28;20038;-72
2022/09/21 06:18:39;;;;;;;3.58;2.15;;;;;;;22.89;49.39;101573.31;5013212;27;20053;-71
2022/09/21 06:21:07;;;;;;;3.25;2.20;;;;;;;22.89;49.15;101576.00;5011752;28;20069;-72
2022/09/21 06:23:35;;;;;;;3.70;2.20;;;;;;;22.88;49.43;101568.88;5011299;28;20046;-71
2022/09/21 06:26:03;;;;;;;3.15;2.13;;;;;;;22.89;49.49;101578.72;5011746;28;20037;-72
2022/09/21 06:28:30;;;;;;;4.10;2.15;;;;;;;22.89;49.34;101567.91;5011186;28;20077;-72
2022/09/21 06:30:58;;;;;;;2.97;2.30;;;;;;;22.88;49.66;101566.19;5011108;28;20393;-72
2022/09/21 06:33:25;;;;;;;5.15;2.25;;;;;;;22.89;49.73;101559.81;5011123;28;20493;-73
2022/09/21 06:35:56;;;;;;;7.72;3.22;;;;;;;22.90;49.45;101572.31;5011590;28;20052;-73
2022/09/21 06:38:24;;;;;;;3.15;2.30;;;;;;;22.90;48.99;101566.91;5011302;28;20477;-73
2022/09/21 06:40:52;;;;;;;6.32;3.08;;;;;;;22.90;49.08;101570.50;5011560;28;20046;-74
2022/09/21 06:43:20;;;;;;;4.60;2.45;;;;;;;22.90;49.15;101581.31;5010974;28;20050;-73
2022/09/21 06:46:00;;;;;;;7.03;2.38;;;;;;;22.91;48.92;101583.00;5015223;28;20046;-73
2022/09/21 06:48:28;;;;;;;4.18;2.70;;;;;;;22.93;49.10;101588.28;5114168;28;20475;-73
2022/09/21 06:51:04;;;;;;;5.55;2.67;;;;;;;22.92;48.52;101582.00;5147590;27;20580;-73
2022/09/21 06:53:32;;;;;;;9.55;2.95;;;;;;;22.88;48.25;101585.94;5146203;27;20055;-73
2022/09/21 06:56:08;;;;;;;4.18;2.92;;;;;;;22.86;48.29;101576.28;5114155;28;20036;-72
2022/09/21 06:58:37;;;;;;;3.33;2.60;;;;;;;22.86;48.53;101578.97;5086527;28;20088;-73
2022/09/21 07:01:10;;;;;;;5.07;2.80;;;;;;;22.84;48.82;101584.50;5010676;28;20046;-73
2022/09/21 07:03:39;;;;;;;7.03;3.20;;;;;;;22.84;48.71;101584.50;5010619;28;20053;-73
2022/09/21 07:06:07;;;;;;;5.18;2.50;;;;;;;22.83;48.61;101587.34;5010837;28;20042;-73
2022/09/21 07:08:35;;;;;;;4.85;2.50;;;;;;;22.85;48.48;101597.03;5010185;28;20057;-73
2022/09/21 07:11:22;;;;;;;3.92;2.60;;;;;;;22.86;48.30;101605.97;5010410;28;20053;-72
2022/09/21 07:13:51;;;;;;;5.97;2.70;;;;;;;22.86;48.15;101597.88;5010517;28;20046;-72
2022/09/21 07:16:18;;;;;;;4.68;2.47;;;;;;;22.85;48.23;101602.44;5010532;28;20038;-73
2022/09/21 07:18:47;;;;;;;7.63;2.85;;;;;;;22.82;48.00;101616.19;5010517;28;20045;-73
2022/09/21 07:21:15;;;;;;;4.63;2.70;;;;;;;22.82;48.01;101612.66;5010529;28;20046;-72
2022/09/21 07:23:43;;;;;;;3.60;2.47;;;;;;;22.80;48.14;101614.59;5010650;28;20046;-72
2022/09/21 07:26:12;;;;;;;3.28;2.30;;;;;;;22.79;47.87;101623.72;4991255;28;20043;-72
2022/09/21 07:28:40;;;;;;;3.53;2.25;;;;;;;22.75;47.78;101620.41;4992095;28;20043;-74
2022/09/21 07:31:14;;;;;;;2.78;1.98;;;;;;;22.74;48.17;101634.06;4994400;28;20397;-73
2022/09/21 07:33:46;;;;;;;4.82;2.20;;;;;;;22.71;48.16;101621.69;4993987;28;20050;-72
2022/09/21 07:36:13;;;;;;;6.78;2.58;;;;;;;22.71;48.32;101627.94;4993877;28;20051;-75
2022/09/21 07:38:42;;;;;;;9.27;2.70;;;;;;;22.71;48.52;101627.94;4994237;28;20069;-74
2022/09/21 07:41:12;;;;;;;4.28;2.97;;;;;;;22.70;48.39;101637.03;4994613;28;20058;-75
2022/09/21 07:43:40;;;;;;;4.30;2.40;;;;;;;22.66;48.40;101632.88;4994667;28;20054;-75
2022/09/21 07:46:10;;;;;;;5.63;2.78;;;;;;;22.63;48.47;101635.84;4994107;28;20038;-73
2022/09/21 07:48:38;;;;;;;3.97;2.33;;;;;;;22.61;48.32;101642.38;5009122;28;20046;-73
2022/09/21 07:51:08;;;;;;;5.72;2.55;;;;;;;22.57;48.35;101639.09;5013901;28;20073;-73
2022/09/21 07:53:37;;;;;;;7.47;2.85;;;;;;;22.55;48.59;101638.34;5045565;28;20057;-73
2022/09/21 07:56:07;;;;;;;3.85;2.10;;;;;;;22.52;48.58;101643.16;5014134;28;20373;-76
2022/09/21 08:01:23;;;;;;;4.57;2.45;;;;;;;22.45;48.75;101643.72;5013823;28;20058;-75
2022/09/21 08:03:52;;;;;;;3.00;2.22;;;;;;;22.45;48.82;101653.66;5014690;28;20046;-77
2022/09/21 08:06:20;;;;;;;4.78;2.10;;;;;;;22.44;48.80;101654.63;5013841;28;20045;-75
2022/09/21 08:08:49;;;;;;;6.50;2.10;;;;;;;22.43;49.34;101661.00;5013528;28;20065;-73
2022/09/21 08:11:25;;;;;;;6.05;2.20;;;;;;;22.42;49.37;101657.47;5013534;28;20042;-72
2022/09/21 08:13:54;;;;;;;3.95;2.13;;;;;;;22.41;49.67;101652.19;5013193;28;20049;-71
2022/09/21 08:16:22;;;;;;;4.18;2.03;;;;;;;22.41;49.87;101657.59;5013337;28;20061;-74
2022/09/21 08:18:50;;;;;;;4.88;2.10;;;;;;;22.42;49.71;101665.56;5013737;28;20049;-71
2022/09/21 08:21:19;;;;;;;7.35;2.00;;;;;;;22.42;49.86;101667.41;5012913;28;20057;-70
2022/09/21 08:23:48;;;;;;;4.72;2.00;;;;;;;22.43;49.54;101652.91;5013105;28;20046;-72
2022/09/21 08:26:18;;;;;;;7.30;2.13;;;;;;;22.44;49.61;101670.81;5013099;28;20046;-73
2022/09/21 08:28:50;;;;;;;2.55;2.00;;;;;;;22.45;49.50;101665.28;5013456;28;20049;-72
2022/09/21 08:31:19;;;;;;;2.93;1.70;;;;;;;22.46;49.47;101663.44;5013146;28;20386;-73
2022/09/21 08:33:48;;;;;;;3.00;1.52;;;;;;;22.46;49.46;101667.00;5012723;28;20405;-72
2022/09/21 08:36:17;;;;;;;3.42;2.15;;;;;;;22.47;49.35;101667.84;5012703;28;20045;-71
2022/09/21 08:38:45;;;;;;;2.78;1.60;;;;;;;22.48;49.50;101676.78;5013101;28;20409;-72
2022/09/21 08:41:31;;;;;;;2.30;1.67;;;;;;;22.48;49.45;101674.09;5012384;28;20053;-72
2022/09/21 08:44:09;;;;;;;3.20;1.77;;;;;;;22.47;49.29;101678.63;5012678;28;20046;-71
2022/09/21 08:46:38;;;;;;;3.00;2.08;;;;;;;22.47;49.30;101678.63;5013040;28;20041;-72
2022/09/21 08:49:16;;;;;;;2.22;1.67;;;;;;;22.49;49.59;101682.06;5012844;28;20049;-74
2022/09/21 08:51:54;;;;;;;1.95;1.63;;;;;;;22.49;49.64;101673.97;5012796;28;20050;-73
2022/09/21 08:54:52;;;;;;;3.35;1.60;;;;;;;22.50;49.37;101685.63;5013034;28;20069;-73
2022/09/21 08:57:21;;;;;;;5.00;1.77;;;;;;;22.50;49.54;101686.47;5012746;28;20034;-72
2022/09/21 08:59:49;;;;;;;2.38;1.77;;;;;;;22.49;49.58;101690.16;5013155;28;20485;-72
2022/09/21 09:02:35;;;;;;;2.72;1.80;;;;;;;22.49;49.81;101684.78;5012988;28;20054;-72
2022/09/21 09:05:31;;;;;;;2.30;1.60;;;;;;;22.49;49.70;101676.69;5010895;28;20061;-72
2022/09/21 09:08:12;;;;;;;2.70;1.50;;;;;;;22.50;49.56;101677.53;5012454;28;20401;-74
2022/09/21 09:11:01;;;;;;;3.67;1.98;;;;;;;22.51;49.43;101684.63;5012987;28;20046;-73
2022/09/21 09:13:57;;;;;;;2.67;1.80;;;;;;;22.52;49.76;101678.25;5011559;28;20054;-73
2022/09/21 09:16:43;;;;;;;2.83;1.70;;;;;;;22.51;49.41;101685.47;5012103;28;20038;-72
2022/09/21 09:19:28;;;;;;;2.53;1.85;;;;;;;22.52;49.31;101687.19;5012591;28;20053;-73
2022/09/21 09:21:56;;;;;;;4.47;1.63;;;;;;;22.52;49.13;101686.34;5012247;28;20054;-72
2022/09/21 09:24:47;;;;;;;2.90;1.55;;;;;;;22.52;49.19;101692.59;5012096;28;20393;-72
2022/09/21 09:27:19;;;;;;;2.45;1.65;;;;;;;22.51;48.96;101680.09;5012566;28;20069;-72
2022/09/21 09:29:52;;;;;;;3.42;1.70;;;;;;;22.50;49.20;101688.31;5012648;28;20049;-72
2022/09/21 09:32:28;;;;;;;7.20;1.60;;;;;;;22.51;49.25;101684.63;5012064;28;20046;-72
2022/09/21 09:35:27;;;;;;;3.03;1.55;;;;;;;22.50;49.03;101682.94;5011785;28;20412;-73
2022/09/21 09:38:01;;;;;;;3.60;1.60;;;;;;;22.49;49.29;101681.22;5052331;28;20382;-72
2022/09/21 09:40:39;;;;;;;2.38;1.70;;;;;;;22.49;48.90;101675.84;5052886;28;20060;-72
2022/09/21 09:43:24;;;;;;;2.65;1.55;;;;;;;22.49;49.06;101676.69;5036017;28;20068;-71
2022/09/21 09:46:08;;;;;;;4.57;1.90;;;;;;;22.49;49.02;101670.44;5052295;28;20048;-72
2022/09/21 09:49:16;;;;;;;2.53;1.58;;;;;;;22.50;49.44;101677.53;5036501;28;20061;-71
2022/09/21 09:51:45;;;;;;;3.88;1.70;;;;;;;22.48;48.97;101671.41;4973121;28;20479;-73
2022/09/21 09:54:15;;;;;;;3.03;1.63;;;;;;;22.48;48.97;101663.31;4973342;28;20062;-71
2022/09/21 09:56:43;;;;;;;2.58;1.40;;;;;;;22.47;49.01;101662.44;4973637;28;20051;-72
2022/09/21 09:59:21;;;;;;;3.75;1.63;;;;;;;22.46;48.90;101649.94;4973680;28;20519;-72
2022/09/21 10:02:02;;;;;;;3.15;1.40;;;;;;;22.46;48.77;101658.91;4973533;28;20074;-71
2022/09/21 10:04:30;;;;;;;3.85;1.63;;;;;;;22.46;48.70;101653.50;4972952;28;20050;-73
2022/09/21 10:06:58;;;;;;;5.28;1.73;;;;;;;22.47;48.55;101657.06;4973625;28;20110;-72
2022/09/21 10:09:31;;;;;;;4.32;1.80;;;;;;;22.45;48.69;101649.09;4973259;28;20081;-72
2022/09/21 10:12:13;;;;;;;;;;;;;;;22.44;48.44;101647.41;4974047;28;20051;-72
2022/09/21 10:14:48;;;;;;;2.30;1.70;;;;;;;22.45;48.68;101659.03;5021397;28;20020;-71
2022/09/21 10:17:17;;;;;;;5.03;1.75;;;;;;;22.44;48.93;101651.91;5034794;28;20049;-72
2022/09/21 10:19:45;;;;;;;2.65;1.52;;;;;;;22.43;48.72;101651.06;5051776;28;20053;-73
2022/09/21 10:22:17;;;;;;;2.65;1.58;;;;;;;22.44;48.92;101649.22;5052116;28;20064;-72
2022/09/21 10:24:52;;;;;;;4.25;1.60;;;;;;;22.43;48.95;101653.75;5051615;28;20052;-73
2022/09/21 10:27:27;;;;;;;2.75;1.60;;;;;;;22.44;49.04;101649.22;5045390;28;20060;-72
2022/09/21 10:29:54;;;;;;;3.85;1.52;;;;;;;22.45;48.79;101642.84;4991521;28;20050;-72
2022/09/21 10:32:25;;;;;;;4.93;1.70;;;;;;;22.45;48.86;101649.09;4991613;28;20046;-73
2022/09/21 10:35:00;;;;;;;4.28;1.40;;;;;;;22.46;49.01;101653.50;4991788;28;20058;-75
2022/09/21 10:37:33;;;;;;;2.35;1.45;;;;;;;22.47;49.21;101640.88;4991903;28;20398;-73
2022/09/21 10:40:01;;;;;;;6.38;1.90;;;;;;;22.50;49.34;101637.91;4991584;28;20047;-72
2022/09/21 10:42:35;;;;;;;2.88;1.50;;;;;;;22.51;49.44;101639.59;4991707;28;20046;-73
2022/09/21 10:45:15;;;;;;;2.30;1.50;;;;;;;22.54;49.63;101625.00;5006248;28;20046;-74
2022/09/21 10:47:48;;;;;;;2.33;1.38;;;;;;;22.56;49.66;101628.41;5011310;28;20060;-74
2022/09/21 10:50:27;;;;;;;2.42;1.52;;;;;;;22.58;49.58;101637.25;5010829;28;20072;-73
2022/09/21 10:53:29;;;;;;;5.60;2.25;;;;;;;22.58;49.77;101624.59;5011479;28;20064;-74
2022/09/21 10:56:04;;;;;;;2.28;1.50;;;;;;;22.61;49.95;101628.88;5051442;28;20064;-73
2022/09/21 10:59:28;;;;;;;2.60;1.40;;;;;;;22.61;49.76;101624.34;5051525;28;20044;-72
2022/09/21 11:01:58;;;;;;;3.95;1.67;;;;;;;22.63;49.84;101624.19;5047960;28;20420;-72
2022/09/21 11:04:50;;;;;;;2.35;1.70;;;;;;;22.64;49.81;101621.34;5054175;28;20408;-73
2022/09/21 11:07:29;;;;;;;2.55;1.70;;;;;;;22.66;49.73;101624.78;5055901;28;20053;-73
2022/09/21 11:10:07;;;;;;;4.57;1.70;;;;;;;22.66;49.81;101623.94;5055455;28;20060;-74
2022/09/21 11:12:51;;;;;;;4.38;1.65;;;;;;;22.68;49.90;101625.50;5055829;28;20048;-72
2022/09/21 11:15:37;;;;;;;2.15;1.20;;;;;;;22.69;49.77;101629.06;5071726;28;20488;-74
2022/09/21 11:18:42;;;;;;;2.75;1.40;;;;;;;22.69;49.71;101627.22;5054952;28;20076;-73
2022/09/21 11:21:28;;;;;;;2.90;1.52;;;;;;;22.70;49.88;101626.22;5055129;28;20471;-73
2022/09/21 11:24:30;;;;;;;2.80;1.52;;;;;;;22.71;49.78;101624.38;5054994;28;20048;-74
2022/09/21 11:27:15;;;;;;;2.92;1.40;;;;;;;22.71;49.64;101621.69;5037932;28;20049;-73
2022/09/21 11:30:02;;;;;;;2.35;1.55;;;;;;;22.73;49.73;101617.00;5055144;28;20053;-73
2022/09/21 11:33:03;;;;;;;3.53;1.60;;;;;;;22.72;49.76;101617.97;5042718;28;20409;-72
2022/09/21 11:35:49;;;;;;;3.25;1.40;;;;;;;22.72;49.50;101626.06;5014191;28;20050;-73
2022/09/21 11:38:32;;;;;;;3.42;1.60;;;;;;;22.73;49.50;101614.31;4995864;28;20061;-73
2022/09/21 11:41:14;;;;;;;2.28;1.30;;;;;;;22.73;49.62;101614.31;5012870;28;20413;-72
2022/09/21 11:43:50;;;;;;;2.25;1.55;;;;;;;22.74;49.88;101616.00;5013507;28;20497;-72
2022/09/21 11:46:32;;;;;;;3.80;2.92;;;;;;;22.75;49.88;101606.06;5014140;28;20050;-72
2022/09/21 11:53:19;;;;;;;4.20;1.95;;;;;;;22.76;50.11;101602.38;5115520;28;20056;-73
2022/09/21 11:55:52;;;;;;;5.80;1.63;;;;;;;22.75;50.38;101612.31;5116329;28;20043;-72
2022/09/21 11:58:24;;;;;;;3.05;1.65;;;;;;;22.75;51.05;101596.13;5116908;28;20373;-72
2022/09/21 12:01:25;;;;;;;5.07;1.60;;;;;;;22.77;50.93;101602.25;5116873;28;20052;-72
2022/09/21 12:04:06;;;;;;;5.03;1.98;;;;;;;22.77;51.45;101596.84;5116360;28;20044;-72
2022/09/21 12:07:26;;;;;;;2.63;1.60;;;;;;;22.77;51.31;101596.84;5117087;28;20044;-73